sensor_id;sensor_type;location;lat;lon;timestamp;P1;durP1;ratioP1;P2;durP2;ratioP2
72408;SDS011;60402;48.082;11.628;2023-07-13T00:00:03;3.55;;;1.63;;
72408;SDS011;60402;48.082;11.628;2023-07-13T00:02:54;5.18;;;1.80;;
72408;SDS011;60402;48.082;11.628;2023-07-13T00:05:40;5.60;;;2.10;;
72408;SDS011;60402;48.082;11.628;2023-07-13T00:08:29;4.78;;;1.92;;
72408;SDS011;60402;48.082;11.628;2023-07-13T00:11:18;4.38;;;1.75;;
72408;SDS011;60402;48.082;11.628;2023-07-13T00:14:03;5.70;;;1.50;;
72408;SDS011;60402;48.082;11.628;2023-07-13T00:16:49;3.10;;;1.48;;
72408;SDS011;60402;48.082;11.628;2023-07-13T00:19:34;5.13;;;1.92;;
72408;SDS011;60402;48.082;11.628;2023-07-13T00:22:21;3.78;;;1.80;;
72408;SDS011;60402;48.082;11.628;2023-07-13T00:25:12;3.60;;;1.70;;
72408;SDS011;60402;48.082;11.628;2023-07-13T00:27:58;4.18;;;1.77;;
72408;SDS011;60402;48.082;11.628;2023-07-13T00:30:43;5.28;;;1.58;;
72408;SDS011;60402;48.082;11.628;2023-07-13T00:33:29;4.78;;;2.03;;
72408;SDS011;60402;48.082;11.628;2023-07-13T00:36:15;3.85;;;1.52;;
72408;SDS011;60402;48.082;11.628;2023-07-13T00:39:01;5.20;;;1.67;;
72408;SDS011;60402;48.082;11.628;2023-07-13T00:41:49;4.78;;;1.60;;
72408;SDS011;60402;48.082;11.628;2023-07-13T00:44:34;3.65;;;1.40;;
72408;SDS011;60402;48.082;11.628;2023-07-13T00:47:20;6.97;;;1.80;;
72408;SDS011;60402;48.082;11.628;2023-07-13T00:50:06;4.75;;;1.58;;
72408;SDS011;60402;48.082;11.628;2023-07-13T00:52:55;4.07;;;1.63;;
72408;SDS011;60402;48.082;11.628;2023-07-13T00:55:43;4.80;;;1.90;;
72408;SDS011;60402;48.082;11.628;2023-07-13T00:58:29;5.53;;;1.73;;
72408;SDS011;60402;48.082;11.628;2023-07-13T01:01:15;3.90;;;1.60;;
72408;SDS011;60402;48.082;11.628;2023-07-13T01:04:01;4.70;;;1.80;;
72408;SDS011;60402;48.082;11.628;2023-07-13T01:06:46;4.28;;;2.00;;
72408;SDS011;60402;48.082;11.628;2023-07-13T01:09:33;4.05;;;1.52;;
72408;SDS011;60402;48.082;11.628;2023-07-13T01:12:18;3.70;;;1.50;;
72408;SDS011;60402;48.082;11.628;2023-07-13T01:15:04;4.30;;;1.70;;
72408;SDS011;60402;48.082;11.628;2023-07-13T01:17:51;4.25;;;1.52;;
72408;SDS011;60402;48.082;11.628;2023-07-13T01:20:37;5.32;;;1.90;;
72408;SDS011;60402;48.082;11.628;2023-07-13T01:23:23;3.05;;;1.50;;
72408;SDS011;60402;48.082;11.628;2023-07-13T01:26:10;3.38;;;1.50;;
72408;SDS011;60402;48.082;11.628;2023-07-13T01:28:56;5.82;;;1.48;;
72408;SDS011;60402;48.082;11.628;2023-07-13T01:31:42;3.05;;;1.45;;
72408;SDS011;60402;48.082;11.628;2023-07-13T01:34:29;3.92;;;1.73;;
72408;SDS011;60402;48.082;11.628;2023-07-13T01:37:15;4.32;;;1.70;;
72408;SDS011;60402;48.082;11.628;2023-07-13T01:40:01;4.15;;;1.63;;
72408;SDS011;60402;48.082;11.628;2023-07-13T01:42:49;3.92;;;1.77;;
72408;SDS011;60402;48.082;11.628;2023-07-13T01:45:35;4.35;;;1.42;;
72408;SDS011;60402;48.082;11.628;2023-07-13T01:48:20;4.03;;;1.73;;
72408;SDS011;60402;48.082;11.628;2023-07-13T01:51:06;3.65;;;1.73;;
72408;SDS011;60402;48.082;11.628;2023-07-13T01:53:52;3.40;;;1.42;;
72408;SDS011;60402;48.082;11.628;2023-07-13T01:56:37;5.25;;;2.20;;
72408;SDS011;60402;48.082;11.628;2023-07-13T01:59:24;4.88;;;1.98;;
72408;SDS011;60402;48.082;11.628;2023-07-13T02:02:09;4.25;;;2.00;;
72408;SDS011;60402;48.082;11.628;2023-07-13T02:04:55;3.55;;;1.52;;
72408;SDS011;60402;48.082;11.628;2023-07-13T02:07:41;3.97;;;1.63;;
72408;SDS011;60402;48.082;11.628;2023-07-13T02:10:27;4.10;;;1.80;;
72408;SDS011;60402;48.082;11.628;2023-07-13T02:13:13;3.63;;;1.58;;
72408;SDS011;60402;48.082;11.628;2023-07-13T02:15:59;4.85;;;1.83;;
72408;SDS011;60402;48.082;11.628;2023-07-13T02:18:45;4.95;;;1.85;;
72408;SDS011;60402;48.082;11.628;2023-07-13T02:21:30;4.00;;;1.30;;
72408;SDS011;60402;48.082;11.628;2023-07-13T02:24:16;3.58;;;1.50;;
72408;SDS011;60402;48.082;11.628;2023-07-13T02:27:04;4.82;;;1.85;;
72408;SDS011;60402;48.082;11.628;2023-07-13T02:29:50;4.40;;;1.50;;
72408;SDS011;60402;48.082;11.628;2023-07-13T02:32:39;5.05;;;1.63;;
72408;SDS011;60402;48.082;11.628;2023-07-13T02:35:24;4.65;;;1.60;;
72408;SDS011;60402;48.082;11.628;2023-07-13T02:38:10;3.03;;;1.55;;
72408;SDS011;60402;48.082;11.628;2023-07-13T02:40:56;4.88;;;1.70;;
72408;SDS011;60402;48.082;11.628;2023-07-13T02:43:41;3.75;;;1.65;;
72408;SDS011;60402;48.082;11.628;2023-07-13T02:46:27;4.53;;;1.70;;
72408;SDS011;60402;48.082;11.628;2023-07-13T02:49:13;5.18;;;2.10;;
72408;SDS011;60402;48.082;11.628;2023-07-13T02:51:58;4.25;;;1.88;;
72408;SDS011;60402;48.082;11.628;2023-07-13T02:54:44;5.60;;;2.00;;
72408;SDS011;60402;48.082;11.628;2023-07-13T02:57:30;3.88;;;1.73;;
72408;SDS011;60402;48.082;11.628;2023-07-13T03:00:18;4.18;;;1.90;;
72408;SDS011;60402;48.082;11.628;2023-07-13T03:03:03;6.78;;;2.08;;
72408;SDS011;60402;48.082;11.628;2023-07-13T03:05:57;6.05;;;1.90;;
72408;SDS011;60402;48.082;11.628;2023-07-13T03:08:44;4.53;;;1.85;;
72408;SDS011;60402;48.082;11.628;2023-07-13T03:11:30;4.75;;;2.13;;
72408;SDS011;60402;48.082;11.628;2023-07-13T03:14:16;4.57;;;2.00;;
72408;SDS011;60402;48.082;11.628;2023-07-13T03:17:02;5.85;;;2.22;;
72408;SDS011;60402;48.082;11.628;2023-07-13T03:19:48;6.63;;;2.72;;
72408;SDS011;60402;48.082;11.628;2023-07-13T03:22:34;5.25;;;2.40;;
72408;SDS011;60402;48.082;11.628;2023-07-13T03:25:20;4.63;;;2.13;;
72408;SDS011;60402;48.082;11.628;2023-07-13T03:28:06;4.45;;;2.00;;
72408;SDS011;60402;48.082;11.628;2023-07-13T03:30:58;4.50;;;2.10;;
72408;SDS011;60402;48.082;11.628;2023-07-13T03:33:48;5.07;;;2.00;;
72408;SDS011;60402;48.082;11.628;2023-07-13T03:36:34;4.45;;;1.85;;
72408;SDS011;60402;48.082;11.628;2023-07-13T03:39:20;5.25;;;2.30;;
72408;SDS011;60402;48.082;11.628;2023-07-13T03:42:06;5.25;;;2.05;;
72408;SDS011;60402;48.082;11.628;2023-07-13T03:44:52;5.25;;;2.35;;
72408;SDS011;60402;48.082;11.628;2023-07-13T03:47:37;5.15;;;2.00;;
72408;SDS011;60402;48.082;11.628;2023-07-13T03:50:23;4.88;;;1.85;;
72408;SDS011;60402;48.082;11.628;2023-07-13T03:53:09;7.57;;;2.20;;
72408;SDS011;60402;48.082;11.628;2023-07-13T03:55:54;6.68;;;2.20;;
72408;SDS011;60402;48.082;11.628;2023-07-13T03:58:40;5.40;;;2.15;;
72408;SDS011;60402;48.082;11.628;2023-07-13T04:01:27;4.82;;;2.00;;
72408;SDS011;60402;48.082;11.628;2023-07-13T04:04:13;4.65;;;2.20;;
72408;SDS011;60402;48.082;11.628;2023-07-13T04:06:59;5.82;;;2.30;;
72408;SDS011;60402;48.082;11.628;2023-07-13T04:09:44;4.72;;;2.03;;
72408;SDS011;60402;48.082;11.628;2023-07-13T04:12:30;5.15;;;2.10;;
72408;SDS011;60402;48.082;11.628;2023-07-13T04:15:16;4.75;;;1.88;;
72408;SDS011;60402;48.082;11.628;2023-07-13T04:18:01;6.95;;;2.08;;
72408;SDS011;60402;48.082;11.628;2023-07-13T04:20:49;6.55;;;1.75;;
72408;SDS011;60402;48.082;11.628;2023-07-13T04:23:36;4.63;;;1.70;;
72408;SDS011;60402;48.082;11.628;2023-07-13T04:26:22;4.78;;;2.05;;
72408;SDS011;60402;48.082;11.628;2023-07-13T04:29:09;4.68;;;1.50;;
72408;SDS011;60402;48.082;11.628;2023-07-13T04:31:57;4.45;;;1.58;;
72408;SDS011;60402;48.082;11.628;2023-07-13T04:34:43;4.65;;;1.50;;
72408;SDS011;60402;48.082;11.628;2023-07-13T04:37:29;4.63;;;1.75;;
72408;SDS011;60402;48.082;11.628;2023-07-13T04:40:15;4.20;;;1.70;;
72408;SDS011;60402;48.082;11.628;2023-07-13T04:43:01;3.90;;;1.55;;
72408;SDS011;60402;48.082;11.628;2023-07-13T04:45:47;4.80;;;1.92;;
72408;SDS011;60402;48.082;11.628;2023-07-13T04:48:33;5.13;;;1.90;;
72408;SDS011;60402;48.082;11.628;2023-07-13T04:51:19;5.75;;;1.75;;
72408;SDS011;60402;48.082;11.628;2023-07-13T04:54:05;4.38;;;1.92;;
72408;SDS011;60402;48.082;11.628;2023-07-13T04:59:38;4.68;;;1.60;;
72408;SDS011;60402;48.082;11.628;2023-07-13T05:02:24;5.20;;;1.70;;
72408;SDS011;60402;48.082;11.628;2023-07-13T05:05:10;4.88;;;1.80;;
72408;SDS011;60402;48.082;11.628;2023-07-13T05:07:55;5.32;;;2.00;;
72408;SDS011;60402;48.082;11.628;2023-07-13T05:10:41;4.80;;;1.92;;
72408;SDS011;60402;48.082;11.628;2023-07-13T05:13:26;4.90;;;1.70;;
72408;SDS011;60402;48.082;11.628;2023-07-13T05:16:12;4.18;;;1.73;;
72408;SDS011;60402;48.082;11.628;2023-07-13T05:18:58;4.18;;;1.83;;
72408;SDS011;60402;48.082;11.628;2023-07-13T05:21:44;3.92;;;1.70;;
72408;SDS011;60402;48.082;11.628;2023-07-13T05:24:29;3.72;;;1.48;;
72408;SDS011;60402;48.082;11.628;2023-07-13T05:27:17;5.30;;;1.90;;
72408;SDS011;60402;48.082;11.628;2023-07-13T05:30:02;6.35;;;1.92;;
72408;SDS011;60402;48.082;11.628;2023-07-13T05:32:49;5.50;;;2.17;;
72408;SDS011;60402;48.082;11.628;2023-07-13T05:35:34;4.75;;;1.80;;
72408;SDS011;60402;48.082;11.628;2023-07-13T05:38:20;4.80;;;1.75;;
72408;SDS011;60402;48.082;11.628;2023-07-13T05:41:08;5.35;;;2.08;;
72408;SDS011;60402;48.082;11.628;2023-07-13T05:43:54;4.63;;;1.70;;
72408;SDS011;60402;48.082;11.628;2023-07-13T05:46:40;4.20;;;1.70;;
72408;SDS011;60402;48.082;11.628;2023-07-13T05:49:25;4.20;;;1.85;;
72408;SDS011;60402;48.082;11.628;2023-07-13T05:52:11;4.88;;;1.83;;
72408;SDS011;60402;48.082;11.628;2023-07-13T05:54:57;6.60;;;1.80;;
72408;SDS011;60402;48.082;11.628;2023-07-13T05:57:42;4.78;;;1.40;;
72408;SDS011;60402;48.082;11.628;2023-07-13T06:00:28;6.30;;;2.00;;
72408;SDS011;60402;48.082;11.628;2023-07-13T06:03:14;5.63;;;1.95;;
72408;SDS011;60402;48.082;11.628;2023-07-13T06:06:00;4.20;;;1.80;;
72408;SDS011;60402;48.082;11.628;2023-07-13T06:08:46;4.68;;;1.90;;
72408;SDS011;60402;48.082;11.628;2023-07-13T06:11:32;5.20;;;1.95;;
72408;SDS011;60402;48.082;11.628;2023-07-13T06:14:17;4.85;;;1.63;;
72408;SDS011;60402;48.082;11.628;2023-07-13T06:17:03;4.18;;;1.75;;
72408;SDS011;60402;48.082;11.628;2023-07-13T06:19:49;4.32;;;1.98;;
72408;SDS011;60402;48.082;11.628;2023-07-13T06:22:35;4.97;;;1.85;;
72408;SDS011;60402;48.082;11.628;2023-07-13T06:25:20;4.43;;;1.70;;
72408;SDS011;60402;48.082;11.628;2023-07-13T06:28:06;4.70;;;1.70;;
72408;SDS011;60402;48.082;11.628;2023-07-13T06:30:52;4.78;;;1.88;;
72408;SDS011;60402;48.082;11.628;2023-07-13T06:33:37;4.95;;;1.70;;
72408;SDS011;60402;48.082;11.628;2023-07-13T06:36:23;4.63;;;1.70;;
72408;SDS011;60402;48.082;11.628;2023-07-13T06:39:09;5.13;;;1.65;;
72408;SDS011;60402;48.082;11.628;2023-07-13T06:41:55;4.82;;;1.73;;
72408;SDS011;60402;48.082;11.628;2023-07-13T06:44:40;4.80;;;1.70;;
72408;SDS011;60402;48.082;11.628;2023-07-13T06:47:26;4.55;;;1.83;;
72408;SDS011;60402;48.082;11.628;2023-07-13T06:50:12;5.43;;;1.75;;
72408;SDS011;60402;48.082;11.628;2023-07-13T06:52:57;4.53;;;2.13;;
72408;SDS011;60402;48.082;11.628;2023-07-13T06:55:45;4.57;;;2.00;;
72408;SDS011;60402;48.082;11.628;2023-07-13T06:58:33;5.93;;;2.00;;
72408;SDS011;60402;48.082;11.628;2023-07-13T07:01:19;3.40;;;1.55;;
72408;SDS011;60402;48.082;11.628;2023-07-13T07:04:05;3.05;;;1.58;;
72408;SDS011;60402;48.082;11.628;2023-07-13T07:06:51;3.95;;;1.55;;
72408;SDS011;60402;48.082;11.628;2023-07-13T07:09:36;5.30;;;1.80;;
72408;SDS011;60402;48.082;11.628;2023-07-13T07:12:22;3.40;;;1.67;;
72408;SDS011;60402;48.082;11.628;2023-07-13T07:15:08;5.70;;;1.60;;
72408;SDS011;60402;48.082;11.628;2023-07-13T07:17:54;5.78;;;1.90;;
72408;SDS011;60402;48.082;11.628;2023-07-13T07:20:39;4.18;;;2.10;;
72408;SDS011;60402;48.082;11.628;2023-07-13T07:23:25;5.38;;;1.98;;
72408;SDS011;60402;48.082;11.628;2023-07-13T07:26:11;4.70;;;1.70;;
72408;SDS011;60402;48.082;11.628;2023-07-13T07:28:57;4.50;;;1.90;;
72408;SDS011;60402;48.082;11.628;2023-07-13T07:31:42;8.07;;;2.17;;
72408;SDS011;60402;48.082;11.628;2023-07-13T07:34:28;3.90;;;1.58;;
72408;SDS011;60402;48.082;11.628;2023-07-13T07:37:14;3.88;;;1.90;;
72408;SDS011;60402;48.082;11.628;2023-07-13T07:40:00;4.00;;;1.70;;
72408;SDS011;60402;48.082;11.628;2023-07-13T07:42:45;5.10;;;1.83;;
72408;SDS011;60402;48.082;11.628;2023-07-13T07:45:31;3.65;;;1.70;;
72408;SDS011;60402;48.082;11.628;2023-07-13T07:48:17;4.30;;;1.50;;
72408;SDS011;60402;48.082;11.628;2023-07-13T07:51:03;5.65;;;1.60;;
72408;SDS011;60402;48.082;11.628;2023-07-13T07:53:48;4.72;;;1.85;;
72408;SDS011;60402;48.082;11.628;2023-07-13T07:56:34;6.63;;;1.88;;
72408;SDS011;60402;48.082;11.628;2023-07-13T07:59:19;5.05;;;1.80;;
72408;SDS011;60402;48.082;11.628;2023-07-13T08:02:05;4.53;;;1.63;;
72408;SDS011;60402;48.082;11.628;2023-07-13T08:04:51;3.05;;;1.50;;
72408;SDS011;60402;48.082;11.628;2023-07-13T08:07:38;5.40;;;1.70;;
72408;SDS011;60402;48.082;11.628;2023-07-13T08:10:24;3.90;;;1.55;;
72408;SDS011;60402;48.082;11.628;2023-07-13T08:13:10;4.93;;;1.80;;
72408;SDS011;60402;48.082;11.628;2023-07-13T08:15:55;4.18;;;1.60;;
72408;SDS011;60402;48.082;11.628;2023-07-13T08:18:41;4.15;;;1.65;;
72408;SDS011;60402;48.082;11.628;2023-07-13T08:21:27;4.05;;;1.73;;
72408;SDS011;60402;48.082;11.628;2023-07-13T08:24:13;3.85;;;1.63;;
72408;SDS011;60402;48.082;11.628;2023-07-13T08:26:59;4.63;;;1.90;;
72408;SDS011;60402;48.082;11.628;2023-07-13T08:29:44;5.93;;;1.77;;
72408;SDS011;60402;48.082;11.628;2023-07-13T08:32:32;4.70;;;1.80;;
72408;SDS011;60402;48.082;11.628;2023-07-13T08:35:18;4.47;;;1.80;;
72408;SDS011;60402;48.082;11.628;2023-07-13T08:38:03;4.03;;;1.55;;
72408;SDS011;60402;48.082;11.628;2023-07-13T08:40:51;6.78;;;1.90;;
72408;SDS011;60402;48.082;11.628;2023-07-13T08:43:38;3.75;;;1.75;;
72408;SDS011;60402;48.082;11.628;2023-07-13T08:46:36;4.85;;;1.70;;
72408;SDS011;60402;48.082;11.628;2023-07-13T08:49:25;3.42;;;1.60;;
72408;SDS011;60402;48.082;11.628;2023-07-13T08:55:06;4.82;;;2.17;;
72408;SDS011;60402;48.082;11.628;2023-07-13T08:58:22;5.88;;;2.05;;
72408;SDS011;60402;48.082;11.628;2023-07-13T09:04:36;5.15;;;1.80;;
72408;SDS011;60402;48.082;11.628;2023-07-13T09:11:14;4.05;;;1.80;;
72408;SDS011;60402;48.082;11.628;2023-07-13T09:17:32;3.85;;;1.58;;
72408;SDS011;60402;48.082;11.628;2023-07-13T09:20:27;5.82;;;1.80;;
72408;SDS011;60402;48.082;11.628;2023-07-13T09:23:21;4.15;;;1.80;;
72408;SDS011;60402;48.082;11.628;2023-07-13T09:29:28;5.82;;;1.95;;
72408;SDS011;60402;48.082;11.628;2023-07-13T09:32:15;3.55;;;1.50;;
72408;SDS011;60402;48.082;11.628;2023-07-13T09:35:09;7.45;;;2.10;;
72408;SDS011;60402;48.082;11.628;2023-07-13T09:37:57;5.55;;;1.70;;
72408;SDS011;60402;48.082;11.628;2023-07-13T09:46:57;5.03;;;1.60;;
72408;SDS011;60402;48.082;11.628;2023-07-13T09:49:43;4.00;;;1.80;;
72408;SDS011;60402;48.082;11.628;2023-07-13T09:52:43;4.18;;;1.40;;
72408;SDS011;60402;48.082;11.628;2023-07-13T09:55:34;2.90;;;1.58;;
72408;SDS011;60402;48.082;11.628;2023-07-13T09:58:24;5.40;;;1.80;;
72408;SDS011;60402;48.082;11.628;2023-07-13T10:01:14;3.75;;;1.65;;
72408;SDS011;60402;48.082;11.628;2023-07-13T10:04:01;4.55;;;1.92;;
72408;SDS011;60402;48.082;11.628;2023-07-13T10:06:47;5.55;;;1.90;;
72408;SDS011;60402;48.082;11.628;2023-07-13T10:09:32;4.25;;;1.77;;
72408;SDS011;60402;48.082;11.628;2023-07-13T10:12:18;5.80;;;1.65;;
72408;SDS011;60402;48.082;11.628;2023-07-13T10:15:04;4.80;;;1.60;;
72408;SDS011;60402;48.082;11.628;2023-07-13T10:17:59;5.35;;;1.90;;
72408;SDS011;60402;48.082;11.628;2023-07-13T10:20:45;4.13;;;1.60;;
72408;SDS011;60402;48.082;11.628;2023-07-13T10:23:31;5.22;;;1.70;;
72408;SDS011;60402;48.082;11.628;2023-07-13T10:26:19;3.95;;;1.27;;
72408;SDS011;60402;48.082;11.628;2023-07-13T10:29:09;4.72;;;1.65;;
72408;SDS011;60402;48.082;11.628;2023-07-13T10:31:59;4.18;;;1.60;;
72408;SDS011;60402;48.082;11.628;2023-07-13T10:34:45;5.40;;;1.70;;
72408;SDS011;60402;48.082;11.628;2023-07-13T10:37:39;4.40;;;1.48;;
72408;SDS011;60402;48.082;11.628;2023-07-13T10:40:33;6.10;;;1.40;;
72408;SDS011;60402;48.082;11.628;2023-07-13T10:43:28;5.15;;;1.45;;
72408;SDS011;60402;48.082;11.628;2023-07-13T10:46:26;3.40;;;1.20;;
72408;SDS011;60402;48.082;11.628;2023-07-13T10:49:13;2.90;;;1.45;;
72408;SDS011;60402;48.082;11.628;2023-07-13T10:52:01;5.90;;;1.77;;
72408;SDS011;60402;48.082;11.628;2023-07-13T10:54:47;3.15;;;1.40;;
72408;SDS011;60402;48.082;11.628;2023-07-13T10:57:40;3.92;;;1.60;;
72408;SDS011;60402;48.082;11.628;2023-07-13T11:00:30;4.35;;;1.13;;
72408;SDS011;60402;48.082;11.628;2023-07-13T11:03:17;4.28;;;1.40;;
72408;SDS011;60402;48.082;11.628;2023-07-13T11:06:11;3.53;;;1.48;;
72408;SDS011;60402;48.082;11.628;2023-07-13T11:09:17;5.55;;;1.40;;
72408;SDS011;60402;48.082;11.628;2023-07-13T11:15:04;3.63;;;1.30;;
72408;SDS011;60402;48.082;11.628;2023-07-13T11:17:55;4.80;;;1.48;;
72408;SDS011;60402;48.082;11.628;2023-07-13T11:20:46;3.38;;;1.40;;
72408;SDS011;60402;48.082;11.628;2023-07-13T11:23:34;4.97;;;1.48;;
72408;SDS011;60402;48.082;11.628;2023-07-13T11:26:37;3.45;;;1.30;;
72408;SDS011;60402;48.082;11.628;2023-07-13T11:29:37;4.68;;;1.50;;
72408;SDS011;60402;48.082;11.628;2023-07-13T11:32:24;2.75;;;1.23;;
72408;SDS011;60402;48.082;11.628;2023-07-13T11:35:24;2.88;;;1.02;;
72408;SDS011;60402;48.082;11.628;2023-07-13T11:38:14;2.80;;;1.13;;
72408;SDS011;60402;48.082;11.628;2023-07-13T11:41:11;2.95;;;1.40;;
72408;SDS011;60402;48.082;11.628;2023-07-13T11:44:06;3.15;;;1.33;;
72408;SDS011;60402;48.082;11.628;2023-07-13T11:49:55;7.28;;;1.83;;
72408;SDS011;60402;48.082;11.628;2023-07-13T11:52:44;3.85;;;1.42;;
72408;SDS011;60402;48.082;11.628;2023-07-13T11:55:30;3.13;;;1.00;;
72408;SDS011;60402;48.082;11.628;2023-07-13T11:58:17;2.70;;;1.02;;
72408;SDS011;60402;48.082;11.628;2023-07-13T12:01:15;3.47;;;1.20;;
72408;SDS011;60402;48.082;11.628;2023-07-13T12:04:05;3.33;;;1.20;;
72408;SDS011;60402;48.082;11.628;2023-07-13T12:06:55;3.42;;;1.00;;
72408;SDS011;60402;48.082;11.628;2023-07-13T12:09:42;3.05;;;1.00;;
72408;SDS011;60402;48.082;11.628;2023-07-13T12:12:28;5.18;;;1.30;;
72408;SDS011;60402;48.082;11.628;2023-07-13T12:18:01;2.63;;;1.15;;
72408;SDS011;60402;48.082;11.628;2023-07-13T12:20:47;3.75;;;1.00;;
72408;SDS011;60402;48.082;11.628;2023-07-13T12:23:35;2.65;;;1.20;;
72408;SDS011;60402;48.082;11.628;2023-07-13T12:26:21;2.75;;;1.20;;
72408;SDS011;60402;48.082;11.628;2023-07-13T12:29:06;3.65;;;1.00;;
72408;SDS011;60402;48.082;11.628;2023-07-13T12:31:53;5.97;;;1.30;;
72408;SDS011;60402;48.082;11.628;2023-07-13T12:34:51;3.28;;;1.13;;
72408;SDS011;60402;48.082;11.628;2023-07-13T12:37:42;5.05;;;1.33;;
72408;SDS011;60402;48.082;11.628;2023-07-13T12:40:32;4.15;;;1.23;;
72408;SDS011;60402;48.082;11.628;2023-07-13T12:43:20;3.78;;;1.48;;
72408;SDS011;60402;48.082;11.628;2023-07-13T12:49:05;4.55;;;1.40;;
72408;SDS011;60402;48.082;11.628;2023-07-13T12:51:56;2.70;;;1.33;;
72408;SDS011;60402;48.082;11.628;2023-07-13T12:54:54;3.80;;;1.27;;
72408;SDS011;60402;48.082;11.628;2023-07-13T12:57:55;2.55;;;1.10;;
72408;SDS011;60402;48.082;11.628;2023-07-13T13:00:47;3.28;;;1.15;;
72408;SDS011;60402;48.082;11.628;2023-07-13T13:03:44;4.10;;;1.35;;
72408;SDS011;60402;48.082;11.628;2023-07-13T13:06:32;3.90;;;1.17;;
72408;SDS011;60402;48.082;11.628;2023-07-13T13:09:18;2.60;;;1.30;;
72408;SDS011;60402;48.082;11.628;2023-07-13T13:12:05;2.30;;;1.10;;
72408;SDS011;60402;48.082;11.628;2023-07-13T13:14:52;3.90;;;1.35;;
72408;SDS011;60402;48.082;11.628;2023-07-13T13:17:38;2.75;;;1.10;;
72408;SDS011;60402;48.082;11.628;2023-07-13T13:20:27;2.92;;;1.13;;
72408;SDS011;60402;48.082;11.628;2023-07-13T13:23:16;2.78;;;1.02;;
72408;SDS011;60402;48.082;11.628;2023-07-13T13:26:05;3.63;;;1.30;;
72408;SDS011;60402;48.082;11.628;2023-07-13T13:28:55;2.78;;;1.20;;
72408;SDS011;60402;48.082;11.628;2023-07-13T13:31:41;3.83;;;1.17;;
72408;SDS011;60402;48.082;11.628;2023-07-13T13:34:27;3.47;;;1.27;;
72408;SDS011;60402;48.082;11.628;2023-07-13T13:37:16;2.05;;;0.93;;
72408;SDS011;60402;48.082;11.628;2023-07-13T13:40:18;4.82;;;1.33;;
72408;SDS011;60402;48.082;11.628;2023-07-13T13:43:13;4.35;;;1.10;;
72408;SDS011;60402;48.082;11.628;2023-07-13T13:46:02;4.10;;;1.45;;
72408;SDS011;60402;48.082;11.628;2023-07-13T13:48:56;4.20;;;1.27;;
72408;SDS011;60402;48.082;11.628;2023-07-13T13:51:42;6.78;;;1.30;;
72408;SDS011;60402;48.082;11.628;2023-07-13T13:54:28;2.55;;;1.20;;
72408;SDS011;60402;48.082;11.628;2023-07-13T13:57:14;3.58;;;1.20;;
72408;SDS011;60402;48.082;11.628;2023-07-13T14:00:00;5.18;;;1.30;;
72408;SDS011;60402;48.082;11.628;2023-07-13T14:02:46;3.17;;;1.20;;
72408;SDS011;60402;48.082;11.628;2023-07-13T14:05:34;3.50;;;1.23;;
72408;SDS011;60402;48.082;11.628;2023-07-13T14:08:20;3.17;;;1.10;;
72408;SDS011;60402;48.082;11.628;2023-07-13T14:11:07;2.15;;;1.00;;
72408;SDS011;60402;48.082;11.628;2023-07-13T14:13:59;2.42;;;1.02;;
72408;SDS011;60402;48.082;11.628;2023-07-13T14:16:46;5.10;;;1.10;;
72408;SDS011;60402;48.082;11.628;2023-07-13T14:19:38;3.55;;;0.90;;
72408;SDS011;60402;48.082;11.628;2023-07-13T14:22:24;3.28;;;1.15;;
72408;SDS011;60402;48.082;11.628;2023-07-13T14:25:11;3.65;;;1.23;;
72408;SDS011;60402;48.082;11.628;2023-07-13T14:27:58;4.38;;;1.25;;
72408;SDS011;60402;48.082;11.628;2023-07-13T14:30:46;3.00;;;1.00;;
72408;SDS011;60402;48.082;11.628;2023-07-13T14:33:32;2.35;;;1.10;;
72408;SDS011;60402;48.082;11.628;2023-07-13T14:36:29;2.35;;;1.10;;
72408;SDS011;60402;48.082;11.628;2023-07-13T14:39:21;5.15;;;1.40;;
72408;SDS011;60402;48.082;11.628;2023-07-13T14:42:08;1.95;;;0.98;;
72408;SDS011;60402;48.082;11.628;2023-07-13T14:44:55;1.65;;;1.02;;
72408;SDS011;60402;48.082;11.628;2023-07-13T14:47:40;4.15;;;1.10;;
72408;SDS011;60402;48.082;11.628;2023-07-13T14:50:30;4.80;;;1.10;;
72408;SDS011;60402;48.082;11.628;2023-07-13T14:53:17;3.70;;;1.42;;
72408;SDS011;60402;48.082;11.628;2023-07-13T14:56:08;4.20;;;1.30;;
72408;SDS011;60402;48.082;11.628;2023-07-13T14:58:56;2.53;;;1.20;;
72408;SDS011;60402;48.082;11.628;2023-07-13T15:01:41;3.38;;;0.93;;
72408;SDS011;60402;48.082;11.628;2023-07-13T15:04:27;2.10;;;1.00;;
72408;SDS011;60402;48.082;11.628;2023-07-13T15:07:14;3.38;;;0.98;;
72408;SDS011;60402;48.082;11.628;2023-07-13T15:10:04;2.92;;;1.10;;
72408;SDS011;60402;48.082;11.628;2023-07-13T15:13:00;4.15;;;1.40;;
72408;SDS011;60402;48.082;11.628;2023-07-13T15:15:57;3.20;;;0.90;;
72408;SDS011;60402;48.082;11.628;2023-07-13T15:18:43;2.80;;;1.20;;
72408;SDS011;60402;48.082;11.628;2023-07-13T15:24:20;3.83;;;1.30;;
72408;SDS011;60402;48.082;11.628;2023-07-13T15:27:10;2.38;;;1.00;;
72408;SDS011;60402;48.082;11.628;2023-07-13T15:29:57;4.03;;;1.30;;
72408;SDS011;60402;48.082;11.628;2023-07-13T15:32:43;4.00;;;0.95;;
72408;SDS011;60402;48.082;11.628;2023-07-13T15:35:29;3.88;;;1.40;;
72408;SDS011;60402;48.082;11.628;2023-07-13T15:38:19;3.63;;;1.15;;
72408;SDS011;60402;48.082;11.628;2023-07-13T15:41:17;4.50;;;1.60;;
72408;SDS011;60402;48.082;11.628;2023-07-13T15:44:05;3.47;;;1.35;;
72408;SDS011;60402;48.082;11.628;2023-07-13T15:47:11;2.35;;;1.20;;
72408;SDS011;60402;48.082;11.628;2023-07-13T15:49:57;7.20;;;2.45;;
72408;SDS011;60402;48.082;11.628;2023-07-13T15:52:53;2.20;;;0.90;;
72408;SDS011;60402;48.082;11.628;2023-07-13T15:55:41;2.85;;;1.20;;
72408;SDS011;60402;48.082;11.628;2023-07-13T15:58:26;2.92;;;1.02;;
72408;SDS011;60402;48.082;11.628;2023-07-13T16:01:13;4.75;;;1.23;;
72408;SDS011;60402;48.082;11.628;2023-07-13T16:03:59;6.32;;;1.83;;
72408;SDS011;60402;48.082;11.628;2023-07-13T16:06:45;2.95;;;1.10;;
72408;SDS011;60402;48.082;11.628;2023-07-13T16:09:31;3.25;;;1.50;;
72408;SDS011;60402;48.082;11.628;2023-07-13T16:12:17;2.72;;;1.27;;
72408;SDS011;60402;48.082;11.628;2023-07-13T16:15:03;4.50;;;1.08;;
72408;SDS011;60402;48.082;11.628;2023-07-13T16:20:36;3.28;;;1.10;;
72408;SDS011;60402;48.082;11.628;2023-07-13T16:23:22;3.72;;;1.23;;
72408;SDS011;60402;48.082;11.628;2023-07-13T16:26:21;2.78;;;1.15;;
72408;SDS011;60402;48.082;11.628;2023-07-13T16:29:12;3.25;;;1.20;;
72408;SDS011;60402;48.082;11.628;2023-07-13T16:32:01;4.45;;;1.55;;
72408;SDS011;60402;48.082;11.628;2023-07-13T16:34:52;3.88;;;1.40;;
72408;SDS011;60402;48.082;11.628;2023-07-13T16:37:38;4.32;;;1.90;;
72408;SDS011;60402;48.082;11.628;2023-07-13T16:40:28;4.25;;;1.55;;
72408;SDS011;60402;48.082;11.628;2023-07-13T16:43:18;3.70;;;1.27;;
72408;SDS011;60402;48.082;11.628;2023-07-13T16:46:07;3.95;;;1.30;;
72408;SDS011;60402;48.082;11.628;2023-07-13T16:48:56;2.78;;;1.17;;
72408;SDS011;60402;48.082;11.628;2023-07-13T16:51:44;4.45;;;1.58;;
72408;SDS011;60402;48.082;11.628;2023-07-13T16:54:31;4.05;;;1.55;;
72408;SDS011;60402;48.082;11.628;2023-07-13T16:57:21;3.45;;;1.75;;
72408;SDS011;60402;48.082;11.628;2023-07-13T17:00:16;2.53;;;1.20;;
72408;SDS011;60402;48.082;11.628;2023-07-13T17:03:09;4.07;;;1.20;;
72408;SDS011;60402;48.082;11.628;2023-07-13T17:05:57;6.25;;;1.50;;
72408;SDS011;60402;48.082;11.628;2023-07-13T17:08:44;2.53;;;1.15;;
72408;SDS011;60402;48.082;11.628;2023-07-13T17:11:30;5.28;;;1.55;;
72408;SDS011;60402;48.082;11.628;2023-07-13T17:14:18;2.17;;;1.17;;
72408;SDS011;60402;48.082;11.628;2023-07-13T17:17:11;2.83;;;1.30;;